sensor_id;sensor_type;location;lat;lon;timestamp;pressure;altitude;pressure_sealevel;temperature;humidity
11856;BME280;5987;53.140;8.904;2022-11-20T00:02:40;101349.44;;;-0.72;100.00
11856;BME280;5987;53.140;8.904;2022-11-20T00:05:44;101345.06;;;-0.75;100.00
11856;BME280;5987;53.140;8.904;2022-11-20T00:08:53;101346.03;;;-0.70;100.00
11856;BME280;5987;53.140;8.904;2022-11-20T00:11:58;101346.88;;;-0.71;100.00
11856;BME280;5987;53.140;8.904;2022-11-20T00:15:02;101352.00;;;-0.72;100.00
11856;BME280;5987;53.140;8.904;2022-11-20T00:18:05;101345.97;;;-0.74;100.00
11856;BME280;5987;53.140;8.904;2022-11-20T00:21:13;101344.28;;;-0.72;100.00
11856;BME280;5987;53.140;8.904;2022-11-20T00:24:18;101345.97;;;-0.74;100.00
11856;BME280;5987;53.140;8.904;2022-11-20T00:27:22;101345.19;;;-0.70;100.00
11856;BME280;5987;53.140;8.904;2022-11-20T00:30:26;101348.63;;;-0.70;100.00
11856;BME280;5987;53.140;8.904;2022-11-20T00:33:30;101342.59;;;-0.70;100.00
11856;BME280;5987;53.140;8.904;2022-11-20T00:36:34;101340.91;;;-0.68;100.00
11856;BME280;5987;53.140;8.904;2022-11-20T00:39:39;101334.06;;;-0.67;100.00
11856;BME280;5987;53.140;8.904;2022-11-20T00:42:43;101330.63;;;-0.65;100.00
11856;BME280;5987;53.140;8.904;2022-11-20T00:45:46;101342.75;;;-0.61;100.00
11856;BME280;5987;53.140;8.904;2022-11-20T00:48:50;101336.78;;;-0.58;100.00
11856;BME280;5987;53.140;8.904;2022-11-20T00:51:54;101335.91;;;-0.59;100.00
11856;BME280;5987;53.140;8.904;2022-11-20T00:54:59;101336.81;;;-0.55;100.00
11856;BME280;5987;53.140;8.904;2022-11-20T00:58:02;101326.44;;;-0.60;100.00
11856;BME280;5987;53.140;8.904;2022-11-20T01:01:12;101327.28;;;-0.61;100.00
11856;BME280;5987;53.140;8.904;2022-11-20T01:04:17;101328.97;;;-0.63;100.00
11856;BME280;5987;53.140;8.904;2022-11-20T01:07:20;101327.28;;;-0.61;100.00
11856;BME280;5987;53.140;8.904;2022-11-20T01:10:25;101324.66;;;-0.62;100.00
11856;BME280;5987;53.140;8.904;2022-11-20T01:13:30;101324.78;;;-0.56;100.00
11856;BME280;5987;53.140;8.904;2022-11-20T01:16:46;101323.91;;;-0.57;100.00
11856;BME280;5987;53.140;8.904;2022-11-20T01:19:50;101316.13;;;-0.60;100.00
11856;BME280;5987;53.140;8.904;2022-11-20T01:22:54;101316.94;;;-0.62;100.00
11856;BME280;5987;53.140;8.904;2022-11-20T01:26:00;101317.75;;;-0.63;100.00
11856;BME280;5987;53.140;8.904;2022-11-20T01:29:06;101316.88;;;-0.67;100.00
11856;BME280;5987;53.140;8.904;2022-11-20T01:32:10;101311.72;;;-0.67;100.00
11856;BME280;5987;53.140;8.904;2022-11-20T01:35:14;101312.56;;;-0.66;100.00
11856;BME280;5987;53.140;8.904;2022-11-20T01:38:18;101303.13;;;-0.66;100.00
11856;BME280;5987;53.140;8.904;2022-11-20T01:41:24;101301.38;;;-0.67;100.00
11856;BME280;5987;53.140;8.904;2022-11-20T01:44:53;101297.97;;;-0.66;100.00
11856;BME280;5987;53.140;8.904;2022-11-20T01:47:57;101285.97;;;-0.64;100.00
11856;BME280;5987;53.140;8.904;2022-11-20T01:51:02;101288.50;;;-0.67;100.00
11856;BME280;5987;53.140;8.904;2022-11-20T01:54:11;101281.66;;;-0.63;100.00
11856;BME280;5987;53.140;8.904;2022-11-20T01:57:19;101291.94;;;-0.66;100.00
11856;BME280;5987;53.140;8.904;2022-11-20T02:00:23;101284.19;;;-0.66;100.00
11856;BME280;5987;53.140;8.904;2022-11-20T02:03:28;101279.00;;;-0.70;100.00
11856;BME280;5987;53.140;8.904;2022-11-20T02:06:36;101276.41;;;-0.70;100.00
11856;BME280;5987;53.140;8.904;2022-11-20T02:09:42;101268.66;;;-0.71;100.00
11856;BME280;5987;53.140;8.904;2022-11-20T02:12:47;101256.56;;;-0.75;100.00
11856;BME280;5987;53.140;8.904;2022-11-20T02:16:14;101263.44;;;-0.76;100.00
11856;BME280;5987;53.140;8.904;2022-11-20T02:19:26;101266.00;;;-0.77;100.00
11856;BME280;5987;53.140;8.904;2022-11-20T02:22:37;101263.34;;;-0.79;100.00
11856;BME280;5987;53.140;8.904;2022-11-20T02:25:46;101271.97;;;-0.78;100.00
11856;BME280;5987;53.140;8.904;2022-11-20T02:28:51;101264.19;;;-0.81;100.00
11856;BME280;5987;53.140;8.904;2022-11-20T02:31:56;101266.00;;;-0.77;100.00
11856;BME280;5987;53.140;8.904;2022-11-20T02:35:08;101263.34;;;-0.79;100.00
11856;BME280;5987;53.140;8.904;2022-11-20T02:38:13;101261.63;;;-0.81;100.00
11856;BME280;5987;53.140;8.904;2022-11-20T02:41:18;101270.25;;;-0.79;100.00
11856;BME280;5987;53.140;8.904;2022-11-20T02:44:22;101261.66;;;-0.78;100.00
11856;BME280;5987;53.140;8.904;2022-11-20T02:47:25;101267.63;;;-0.81;100.00
11856;BME280;5987;53.140;8.904;2022-11-20T02:50:29;101263.34;;;-0.80;100.00
11856;BME280;5987;53.140;8.904;2022-11-20T02:53:33;101261.59;;;-0.83;100.00
11856;BME280;5987;53.140;8.904;2022-11-20T02:56:39;101256.50;;;-0.80;100.00
11856;BME280;5987;53.140;8.904;2022-11-20T02:59:43;101250.44;;;-0.80;100.00
11856;BME280;5987;53.140;8.904;2022-11-20T03:02:46;101248.81;;;-0.77;100.00
11856;BME280;5987;53.140;8.904;2022-11-20T03:05:50;101241.78;;;-0.87;100.00
11856;BME280;5987;53.140;8.904;2022-11-20T03:08:54;101242.66;;;-0.83;100.00
11856;BME280;5987;53.140;8.904;2022-11-20T03:11:59;101240.09;;;-0.83;100.00
11856;BME280;5987;53.140;8.904;2022-11-20T03:15:04;101232.38;;;-0.82;100.00
11856;BME280;5987;53.140;8.904;2022-11-20T03:18:08;101229.00;;;-0.79;100.00
11856;BME280;5987;53.140;8.904;2022-11-20T03:21:14;101230.75;;;-0.77;100.00
11856;BME280;5987;53.140;8.904;2022-11-20T03:24:18;101225.47;;;-0.84;100.00
11856;BME280;5987;53.140;8.904;2022-11-20T03:27:24;101216.06;;;-0.81;100.00
11856;BME280;5987;53.140;8.904;2022-11-20T03:30:27;101212.66;;;-0.80;100.00
11856;BME280;5987;53.140;8.904;2022-11-20T03:33:32;101210.16;;;-0.75;100.00
11856;BME280;5987;53.140;8.904;2022-11-20T03:36:38;101211.78;;;-0.79;100.00
11856;BME280;5987;53.140;8.904;2022-11-20T03:39:42;101205.78;;;-0.79;100.00
11856;BME280;5987;53.140;8.904;2022-11-20T03:42:48;101213.69;;;-0.70;100.00
11856;BME280;5987;53.140;8.904;2022-11-20T03:45:51;101206.69;;;-0.77;100.00
11856;BME280;5987;53.140;8.904;2022-11-20T03:48:56;101210.97;;;-0.76;100.00
11856;BME280;5987;53.140;8.904;2022-11-20T03:51:59;101202.41;;;-0.77;100.00
11856;BME280;5987;53.140;8.904;2022-11-20T03:55:04;101192.91;;;-0.78;100.00
11856;BME280;5987;53.140;8.904;2022-11-20T03:58:10;101194.63;;;-0.80;100.00
11856;BME280;5987;53.140;8.904;2022-11-20T04:01:16;101188.66;;;-0.76;100.00
11856;BME280;5987;53.140;8.904;2022-11-20T04:04:20;101182.59;;;-0.79;100.00
11856;BME280;5987;53.140;8.904;2022-11-20T04:07:24;101182.63;;;-0.76;100.00
11856;BME280;5987;53.140;8.904;2022-11-20T04:10:27;101189.53;;;-0.75;100.00
11856;BME280;5987;53.140;8.904;2022-11-20T04:13:32;101186.91;;;-0.78;100.00
11856;BME280;5987;53.140;8.904;2022-11-20T04:16:36;101177.47;;;-0.76;100.00
11856;BME280;5987;53.140;8.904;2022-11-20T04:19:40;101175.81;;;-0.74;100.00
11856;BME280;5987;53.140;8.904;2022-11-20T04:22:43;101180.16;;;-0.70;100.00
11856;BME280;5987;53.140;8.904;2022-11-20T04:25:47;101182.66;;;-0.73;100.00
11856;BME280;5987;53.140;8.904;2022-11-20T04:28:52;101174.06;;;-0.75;100.00
11856;BME280;5987;53.140;8.904;2022-11-20T04:31:56;101155.22;;;-0.71;100.00
11856;BME280;5987;53.140;8.904;2022-11-20T04:34:59;101147.47;;;-0.71;100.00
11856;BME280;5987;53.140;8.904;2022-11-20T04:38:03;101147.50;;;-0.70;100.00
11856;BME280;5987;53.140;8.904;2022-11-20T04:41:16;101147.53;;;-0.66;100.00
11856;BME280;5987;53.140;8.904;2022-11-20T04:44:22;101172.47;;;-0.67;100.00
11856;BME280;5987;53.140;8.904;2022-11-20T04:47:25;101178.50;;;-0.65;100.00
11856;BME280;5987;53.140;8.904;2022-11-20T04:50:29;101175.84;;;-0.71;100.00
11856;BME280;5987;53.140;8.904;2022-11-20T04:53:33;101172.34;;;-0.73;100.00
11856;BME280;5987;53.140;8.904;2022-11-20T04:56:36;101172.44;;;-0.70;100.00
11856;BME280;5987;53.140;8.904;2022-11-20T04:59:42;101169.06;;;-0.66;100.00
11856;BME280;5987;53.140;8.904;2022-11-20T05:02:46;101169.94;;;-0.62;100.00
11856;BME280;5987;53.140;8.904;2022-11-20T05:05:49;101181.97;;;-0.64;100.00
11856;BME280;5987;53.140;8.904;2022-11-20T05:08:53;101172.50;;;-0.64;100.00
11856;BME280;5987;53.140;8.904;2022-11-20T05:11:56;101169.09;;;-0.63;100.00
11856;BME280;5987;53.140;8.904;2022-11-20T05:15:01;101162.25;;;-0.58;100.00
11856;BME280;5987;53.140;8.904;2022-11-20T05:18:05;101159.72;;;-0.56;100.00
11856;BME280;5987;53.140;8.904;2022-11-20T05:21:12;101150.25;;;-0.59;100.00
11856;BME280;5987;53.140;8.904;2022-11-20T05:24:15;101150.28;;;-0.56;100.00
11856;BME280;5987;53.140;8.904;2022-11-20T05:27:19;101148.56;;;-0.55;100.00
11856;BME280;5987;53.140;8.904;2022-11-20T05:30:24;101157.88;;;-0.63;100.00
11856;BME280;5987;53.140;8.904;2022-11-20T05:33:28;101143.31;;;-0.63;100.00
11856;BME280;5987;53.140;8.904;2022-11-20T05:36:32;101143.31;;;-0.61;100.00
11856;BME280;5987;53.140;8.904;2022-11-20T05:39:36;101148.41;;;-0.66;100.00
11856;BME280;5987;53.140;8.904;2022-11-20T05:42:39;101146.69;;;-0.67;100.00
11856;BME280;5987;53.140;8.904;2022-11-20T05:45:53;101148.41;;;-0.66;100.00
11856;BME280;5987;53.140;8.904;2022-11-20T05:48:57;101153.56;;;-0.66;100.00
11856;BME280;5987;53.140;8.904;2022-11-20T05:52:01;101148.41;;;-0.66;100.00
11856;BME280;5987;53.140;8.904;2022-11-20T05:55:06;101153.66;;;-0.60;100.00
11856;BME280;5987;53.140;8.904;2022-11-20T05:58:11;101151.91;;;-0.61;100.00
11856;BME280;5987;53.140;8.904;2022-11-20T06:01:18;101145.91;;;-0.60;100.00
11856;BME280;5987;53.140;8.904;2022-11-20T06:04:23;101143.38;;;-0.57;100.00
11856;BME280;5987;53.140;8.904;2022-11-20T06:07:27;101144.16;;;-0.61;100.00
11856;BME280;5987;53.140;8.904;2022-11-20T06:10:31;101142.41;;;-0.63;100.00
11856;BME280;5987;53.140;8.904;2022-11-20T06:13:34;101133.84;;;-0.61;100.00
11856;BME280;5987;53.140;8.904;2022-11-20T06:16:44;101139.06;;;-0.58;100.00
11856;BME280;5987;53.140;8.904;2022-11-20T06:19:48;101124.44;;;-0.59;100.00
11856;BME280;5987;53.140;8.904;2022-11-20T06:22:52;101116.72;;;-0.59;100.00
11856;BME280;5987;53.140;8.904;2022-11-20T06:25:55;101124.44;;;-0.60;100.00
11856;BME280;5987;53.140;8.904;2022-11-20T06:28:59;101123.63;;;-0.56;100.00
11856;BME280;5987;53.140;8.904;2022-11-20T06:32:04;101131.28;;;-0.61;100.00
11856;BME280;5987;53.140;8.904;2022-11-20T06:35:09;101130.38;;;-0.66;100.00
11856;BME280;5987;53.140;8.904;2022-11-20T06:38:13;101122.69;;;-0.61;100.00
11856;BME280;5987;53.140;8.904;2022-11-20T06:41:19;101117.53;;;-0.61;100.00
11856;BME280;5987;53.140;8.904;2022-11-20T06:44:23;101115.00;;;-0.57;100.00
11856;BME280;5987;53.140;8.904;2022-11-20T06:47:28;101104.69;;;-0.57;100.00
11856;BME280;5987;53.140;8.904;2022-11-20T06:50:31;101108.09;;;-0.59;100.00
11856;BME280;5987;53.140;8.904;2022-11-20T06:53:36;101108.09;;;-0.58;100.00
11856;BME280;5987;53.140;8.904;2022-11-20T06:56:40;101103.00;;;-0.56;100.00
11856;BME280;5987;53.140;8.904;2022-11-20T06:59:44;101102.94;;;-0.58;100.00
11856;BME280;5987;53.140;8.904;2022-11-20T07:02:49;101088.31;;;-0.60;100.00
11856;BME280;5987;53.140;8.904;2022-11-20T07:05:54;101101.22;;;-0.60;100.00
11856;BME280;5987;53.140;8.904;2022-11-20T07:08:59;101118.47;;;-0.56;100.00
11856;BME280;5987;53.140;8.904;2022-11-20T07:12:04;101118.38;;;-0.62;100.00
11856;BME280;5987;53.140;8.904;2022-11-20T07:15:08;101117.69;;;-0.50;100.00
11856;BME280;5987;53.140;8.904;2022-11-20T07:18:13;101115.84;;;-0.58;100.00
11856;BME280;5987;53.140;8.904;2022-11-20T07:21:17;101121.00;;;-0.58;100.00
11856;BME280;5987;53.140;8.904;2022-11-20T07:24:21;101117.53;;;0.09;100.00
11856;BME280;5987;53.140;8.904;2022-11-20T07:27:24;101111.06;;;-0.27;100.00
11856;BME280;5987;53.140;8.904;2022-11-20T07:30:29;101104.91;;;-0.40;100.00
11856;BME280;5987;53.140;8.904;2022-11-20T07:33:35;101110.84;;;-0.47;100.00
11856;BME280;5987;53.140;8.904;2022-11-20T07:36:39;101103.13;;;-0.44;100.00
11856;BME280;5987;53.140;8.904;2022-11-20T07:39:43;101103.09;;;-0.47;100.00
11856;BME280;5987;53.140;8.904;2022-11-20T07:42:48;101103.88;;;-0.53;100.00
11856;BME280;5987;53.140;8.904;2022-11-20T07:45:54;101105.66;;;-0.50;100.00
11856;BME280;5987;53.140;8.904;2022-11-20T07:48:59;101102.22;;;-0.50;100.00
11856;BME280;5987;53.140;8.904;2022-11-20T07:52:03;101105.72;;;-0.44;100.00
11856;BME280;5987;53.140;8.904;2022-11-20T07:55:09;101119.50;;;-0.43;100.00
11856;BME280;5987;53.140;8.904;2022-11-20T07:58:13;101110.81;;;-0.48;100.00
11856;BME280;5987;53.140;8.904;2022-11-20T08:01:17;101114.38;;;-0.40;100.00
11856;BME280;5987;53.140;8.904;2022-11-20T08:04:22;101115.19;;;-0.44;100.00
11856;BME280;5987;53.140;8.904;2022-11-20T08:07:25;101115.97;;;-0.48;100.00
11856;BME280;5987;53.140;8.904;2022-11-20T08:10:29;101128.09;;;-0.41;100.00
11856;BME280;5987;53.140;8.904;2022-11-20T08:13:33;101126.34;;;-0.44;100.00
11856;BME280;5987;53.140;8.904;2022-11-20T08:16:56;101121.34;;;-0.31;100.00
11856;BME280;5987;53.140;8.904;2022-11-20T08:20:01;101132.59;;;-0.28;100.00
11856;BME280;5987;53.140;8.904;2022-11-20T08:23:06;101122.34;;;-0.20;100.00
11856;BME280;5987;53.140;8.904;2022-11-20T08:26:10;101113.78;;;-0.16;100.00
11856;BME280;5987;53.140;8.904;2022-11-20T08:29:14;101122.44;;;-0.15;100.00
11856;BME280;5987;53.140;8.904;2022-11-20T08:32:18;101124.31;;;0.01;100.00
11856;BME280;5987;53.140;8.904;2022-11-20T08:35:23;101123.63;;;0.14;100.00
11856;BME280;5987;53.140;8.904;2022-11-20T08:38:27;101130.44;;;0.09;100.00
11856;BME280;5987;53.140;8.904;2022-11-20T08:41:30;101119.22;;;0.06;100.00
11856;BME280;5987;53.140;8.904;2022-11-20T08:44:35;101121.88;;;0.13;100.00
11856;BME280;5987;53.140;8.904;2022-11-20T08:47:39;101116.72;;;0.13;100.00
11856;BME280;5987;53.140;8.904;2022-11-20T08:50:44;101118.44;;;0.14;100.00
11856;BME280;5987;53.140;8.904;2022-11-20T08:53:48;101118.44;;;0.11;100.00
11856;BME280;5987;53.140;8.904;2022-11-20T08:56:52;101116.84;;;0.27;100.00
11856;BME280;5987;53.140;8.904;2022-11-20T08:59:56;101114.19;;;0.20;100.00
11856;BME280;5987;53.140;8.904;2022-11-20T09:03:08;101109.06;;;0.21;100.00
11856;BME280;5987;53.140;8.904;2022-11-20T09:06:14;101111.59;;;0.20;100.00
11856;BME280;5987;53.140;8.904;2022-11-20T09:09:17;101114.22;;;0.21;100.00
11856;BME280;5987;53.140;8.904;2022-11-20T09:12:22;101127.97;;;0.20;100.00
11856;BME280;5987;53.140;8.904;2022-11-20T09:15:35;101124.38;;;0.06;100.00
11856;BME280;5987;53.140;8.904;2022-11-20T09:18:38;101123.63;;;0.14;100.00
11856;BME280;5987;53.140;8.904;2022-11-20T09:21:44;101129.63;;;0.13;100.00
11856;BME280;5987;53.140;8.904;2022-11-20T09:24:47;101121.91;;;0.16;100.00
11856;BME280;5987;53.140;8.904;2022-11-20T09:27:55;101128.13;;;0.36;100.00
11856;BME280;5987;53.140;8.904;2022-11-20T09:31:00;101127.19;;;0.27;100.00
11856;BME280;5987;53.140;8.904;2022-11-20T09:34:04;101124.56;;;0.21;100.00
11856;BME280;5987;53.140;8.904;2022-11-20T09:37:09;101122.00;;;0.24;100.00
11856;BME280;5987;53.140;8.904;2022-11-20T09:40:20;101123.66;;;0.21;100.00
11856;BME280;5987;53.140;8.904;2022-11-20T09:43:49;101116.03;;;0.30;100.00
11856;BME280;5987;53.140;8.904;2022-11-20T09:47:07;101116.81;;;0.23;100.00
11856;BME280;5987;53.140;8.904;2022-11-20T09:50:26;101114.22;;;0.23;100.00
11856;BME280;5987;53.140;8.904;2022-11-20T09:53:55;101110.72;;;0.17;100.00
11856;BME280;5987;53.140;8.904;2022-11-20T09:57:08;101108.13;;;0.14;100.00
11856;BME280;5987;53.140;8.904;2022-11-20T10:00:15;101109.00;;;0.18;100.00
11856;BME280;5987;53.140;8.904;2022-11-20T10:03:37;101107.31;;;0.19;100.00
11856;BME280;5987;53.140;8.904;2022-11-20T10:06:53;101106.50;;;0.24;100.00
11856;BME280;5987;53.140;8.904;2022-11-20T10:10:33;101113.16;;;0.02;100.00
11856;BME280;5987;53.140;8.904;2022-11-20T10:14:00;101106.25;;;0.01;100.00
11856;BME280;5987;53.140;8.904;2022-11-20T10:17:18;101107.00;;;-0.11;100.00
11856;BME280;5987;53.140;8.904;2022-11-20T10:20:30;101107.00;;;-0.11;100.00
11856;BME280;5987;53.140;8.904;2022-11-20T10:24:23;101105.22;;;-0.13;100.00
11856;BME280;5987;53.140;8.904;2022-11-20T10:27:52;101107.88;;;-0.07;100.00
11856;BME280;5987;53.140;8.904;2022-11-20T10:31:03;101104.47;;;-0.03;100.00
11856;BME280;5987;53.140;8.904;2022-11-20T10:34:20;101100.13;;;-0.06;100.00
11856;BME280;5987;53.140;8.904;2022-11-20T10:37:29;101097.59;;;-0.04;100.00
11856;BME280;5987;53.140;8.904;2022-11-20T10:40:39;101091.69;;;0.06;100.00
11856;BME280;5987;53.140;8.904;2022-11-20T10:43:47;101094.25;;;0.06;100.00
11856;BME280;5987;53.140;8.904;2022-11-20T10:46:52;101087.00;;;0.62;100.00
11856;BME280;5987;53.140;8.904;2022-11-20T10:50:02;101090.78;;;0.04;100.00
11856;BME280;5987;53.140;8.904;2022-11-20T10:53:20;101092.31;;;-0.13;100.00
11856;BME280;5987;53.140;8.904;2022-11-20T10:56:38;101094.81;;;-0.21;100.00
11856;BME280;5987;53.140;8.904;2022-11-20T11:00:02;101089.53;;;-0.32;100.00
11856;BME280;5987;53.140;8.904;2022-11-20T11:03:23;101097.31;;;-0.29;100.00
11856;BME280;5987;53.140;8.904;2022-11-20T11:06:36;101099.91;;;-0.26;100.00
11856;BME280;5987;53.140;8.904;2022-11-20T11:09:46;101087.81;;;-0.31;100.00
11856;BME280;5987;53.140;8.904;2022-11-20T11:12:50;101085.19;;;-0.36;100.00
11856;BME280;5987;53.140;8.904;2022-11-20T11:15:58;101087.03;;;-0.24;100.00
11856;BME280;5987;53.140;8.904;2022-11-20T11:19:06;101085.31;;;-0.25;100.00
11856;BME280;5987;53.140;8.904;2022-11-20T11:22:16;101087.28;;;-0.04;100.00
11856;BME280;5987;53.140;8.904;2022-11-20T11:25:28;101090.72;;;-0.02;100.00
11856;BME280;5987;53.140;8.904;2022-11-20T11:28:33;101084.00;;;0.15;100.00
11856;BME280;5987;53.140;8.904;2022-11-20T11:31:38;101083.28;;;0.26;100.00
11856;BME280;5987;53.140;8.904;2022-11-20T11:34:42;101079.78;;;0.21;100.00
11856;BME280;5987;53.140;8.904;2022-11-20T11:37:46;101073.75;;;0.22;100.00
11856;BME280;5987;53.140;8.904;2022-11-20T11:40:54;101064.50;;;0.44;100.00
11856;BME280;5987;53.140;8.904;2022-11-20T11:44:15;101079.75;;;0.17;100.00
11856;BME280;5987;53.140;8.904;2022-11-20T11:47:46;101068.75;;;0.37;100.00
11856;BME280;5987;53.140;8.904;2022-11-20T11:50:51;101070.41;;;0.32;100.00
11856;BME280;5987;53.140;8.904;2022-11-20T11:53:58;101071.22;;;0.26;100.00
11856;BME280;5987;53.140;8.904;2022-11-20T11:57:12;101064.44;;;0.39;100.00
11856;BME280;5987;53.140;8.904;2022-11-20T12:00:21;101065.41;;;0.50;100.00
11856;BME280;5987;53.140;8.904;2022-11-20T12:03:34;101069.66;;;0.42;100.00
11856;BME280;5987;53.140;8.904;2022-11-20T12:06:43;101067.09;;;0.45;100.00
11856;BME280;5987;53.140;8.904;2022-11-20T12:09:53;101065.31;;;0.38;100.00
11856;BME280;5987;53.140;8.904;2022-11-20T12:13:05;101063.56;;;0.37;100.00
11856;BME280;5987;53.140;8.904;2022-11-20T12:16:14;101054.19;;;0.45;100.00
11856;BME280;5987;53.140;8.904;2022-11-20T12:19:22;101051.72;;;0.61;100.00
11856;BME280;5987;53.140;8.904;2022-11-20T12:22:38;101042.34;;;0.75;100.00
11856;BME280;5987;53.140;8.904;2022-11-20T12:25:52;101036.25;;;0.70;100.00
11856;BME280;5987;53.140;8.904;2022-11-20T12:29:09;101031.84;;;0.54;100.00
11856;BME280;5987;53.140;8.904;2022-11-20T12:32:51;101027.56;;;0.59;100.00
11856;BME280;5987;53.140;8.904;2022-11-20T12:36:19;101017.13;;;0.46;100.00
11856;BME280;5987;53.140;8.904;2022-11-20T12:39:35;101019.00;;;0.63;100.00
11856;BME280;5987;53.140;8.904;2022-11-20T12:43:01;101015.41;;;0.42;100.00
11856;BME280;5987;53.140;8.904;2022-11-20T12:46:38;101012.19;;;0.77;100.00
11856;BME280;5987;53.140;8.904;2022-11-20T12:49:53;101013.84;;;0.67;100.00
11856;BME280;5987;53.140;8.904;2022-11-20T12:53:13;101013.91;;;0.78;100.00
11856;BME280;5987;53.140;8.904;2022-11-20T12:56:37;101012.22;;;0.80;100.00
11856;BME280;5987;53.140;8.904;2022-11-20T13:00:08;101014.75;;;0.74;100.00
11856;BME280;5987;53.140;8.904;2022-11-20T13:03:37;101006.97;;;0.68;100.00
11856;BME280;5987;53.140;8.904;2022-11-20T13:06:44;101008.66;;;0.63;100.00
11856;BME280;5987;53.140;8.904;2022-11-20T13:09:51;101008.59;;;0.54;100.00
11856;BME280;5987;53.140;8.904;2022-11-20T13:13:01;101006.88;;;0.56;100.00
11856;BME280;5987;53.140;8.904;2022-11-20T13:16:12;100998.22;;;0.52;100.00
11856;BME280;5987;53.140;8.904;2022-11-20T13:19:20;100999.97;;;0.51;100.00
11856;BME280;5987;53.140;8.904;2022-11-20T13:22:25;100992.31;;;0.64;100.00
11856;BME280;5987;53.140;8.904;2022-11-20T13:25:33;100990.47;;;0.47;100.00
11856;BME280;5987;53.140;8.904;2022-11-20T13:28:37;100999.81;;;0.33;100.00
11856;BME280;5987;53.140;8.904;2022-11-20T13:31:45;100987.81;;;0.38;100.00
11856;BME280;5987;53.140;8.904;2022-11-20T13:34:53;100982.66;;;0.38;100.00
11856;BME280;5987;53.140;8.904;2022-11-20T13:38:05;100986.09;;;0.37;100.00
11856;BME280;5987;53.140;8.904;2022-11-20T13:41:10;100987.66;;;0.20;100.00
11856;BME280;5987;53.140;8.904;2022-11-20T13:44:42;100985.06;;;0.20;100.00
11856;BME280;5987;53.140;8.904;2022-11-20T13:47:49;100979.06;;;0.22;100.00
11856;BME280;5987;53.140;8.904;2022-11-20T13:51:27;100973.91;;;0.21;100.00
11856;BME280;5987;53.140;8.904;2022-11-20T13:54:55;100977.38;;;0.24;100.00
11856;BME280;5987;53.140;8.904;2022-11-20T13:58:33;100968.81;;;0.28;100.00
11856;BME280;5987;53.140;8.904;2022-11-20T14:01:40;100956.75;;;0.26;100.00
11856;BME280;5987;53.140;8.904;2022-11-20T14:04:50;100967.78;;;0.11;100.00
11856;BME280;5987;53.140;8.904;2022-11-20T14:07:55;100978.06;;;0.02;100.00
11856;BME280;5987;53.140;8.904;2022-11-20T14:11:16;100978.06;;;0.00;100.00
11856;BME280;5987;53.140;8.904;2022-11-20T14:14:23;100984.91;;;0.01;100.00
11856;BME280;5987;53.140;8.904;2022-11-20T14:17:32;100973.72;;;-0.04;100.00
11856;BME280;5987;53.140;8.904;2022-11-20T14:20:38;100972.00;;;-0.02;100.00
11856;BME280;5987;53.140;8.904;2022-11-20T14:23:43;100965.16;;;0.00;100.00
11856;BME280;5987;53.140;8.904;2022-11-20T14:26:50;100965.06;;;-0.09;100.00
11856;BME280;5987;53.140;8.904;2022-11-20T14:29:56;100958.03;;;-0.23;100.00
11856;BME280;5987;53.140;8.904;2022-11-20T14:33:03;100952.94;;;-0.16;100.00
11856;BME280;5987;53.140;8.904;2022-11-20T14:36:18;100945.94;;;-0.27;100.00
11856;BME280;5987;53.140;8.904;2022-11-20T14:39:30;100939.81;;;-0.40;100.00
11856;BME280;5987;53.140;8.904;2022-11-20T14:42:34;100933.84;;;-0.36;100.00
11856;BME280;5987;53.140;8.904;2022-11-20T14:45:41;100938.13;;;-0.38;100.00
11856;BME280;5987;53.140;8.904;2022-11-20T14:48:49;100928.50;;;-0.53;100.00
11856;BME280;5987;53.140;8.904;2022-11-20T14:52:00;100934.44;;;-0.63;100.00
11856;BME280;5987;53.140;8.904;2022-11-20T14:55:05;100936.09;;;-0.66;100.00
11856;BME280;5987;53.140;8.904;2022-11-20T14:58:22;100936.00;;;-0.77;100.00
11856;BME280;5987;53.140;8.904;2022-11-20T15:01:31;100935.09;;;-0.79;100.00
11856;BME280;5987;53.140;8.904;2022-11-20T15:04:46;100930.72;;;-0.88;100.00
11856;BME280;5987;53.140;8.904;2022-11-20T15:08:07;100930.56;;;-0.99;100.00
11856;BME280;5987;53.140;8.904;2022-11-20T15:11:20;100926.31;;;-0.97;100.00
11856;BME280;5987;53.140;8.904;2022-11-20T15:14:33;100920.25;;;-1.00;100.00
11856;BME280;5987;53.140;8.904;2022-11-20T15:17:41;100921.03;;;-1.06;100.00
11856;BME280;5987;53.140;8.904;2022-11-20T15:20:48;100923.41;;;-1.25;100.00
11856;BME280;5987;53.140;8.904;2022-11-20T15:23:56;100921.59;;;-1.32;100.00
11856;BME280;5987;53.140;8.904;2022-11-20T15:27:01;100924.13;;;-1.35;100.00
11856;BME280;5987;53.140;8.904;2022-11-20T15:30:13;100917.28;;;-1.33;100.00
11856;BME280;5987;53.140;8.904;2022-11-20T15:33:20;100917.03;;;-1.51;100.00
11856;BME280;5987;53.140;8.904;2022-11-20T15:36:24;100906.63;;;-1.58;100.00
11856;BME280;5987;53.140;8.904;2022-11-20T15:39:28;100894.81;;;-1.43;100.00
11856;BME280;5987;53.140;8.904;2022-11-20T15:42:31;100891.28;;;-1.50;100.00
11856;BME280;5987;53.140;8.904;2022-11-20T15:45:39;100886.94;;;-1.56;100.00
11856;BME280;5987;53.140;8.904;2022-11-20T15:48:51;100889.53;;;-1.52;100.00
11856;BME280;5987;53.140;8.904;2022-11-20T15:51:55;100883.53;;;-1.54;100.00
11856;BME280;5987;53.140;8.904;2022-11-20T15:54:59;100879.06;;;-1.65;100.00
11856;BME280;5987;53.140;8.904;2022-11-20T15:58:09;100871.19;;;-1.77;100.00
11856;BME280;5987;53.140;8.904;2022-11-20T16:01:15;100861.63;;;-1.84;100.00
11856;BME280;5987;53.140;8.904;2022-11-20T16:04:21;100865.06;;;-1.85;100.00
11856;BME280;5987;53.140;8.904;2022-11-20T16:07:25;100867.56;;;-1.88;100.00
11856;BME280;5987;53.140;8.904;2022-11-20T16:10:29;100865.97;;;-1.82;100.00
11856;BME280;5987;53.140;8.904;2022-11-20T16:13:32;100868.41;;;-1.91;100.00
11856;BME280;5987;53.140;8.904;2022-11-20T16:16:53;100865.84;;;-1.91;100.00
11856;BME280;5987;53.140;8.904;2022-11-20T16:19:58;100858.09;;;-1.93;100.00
11856;BME280;5987;53.140;8.904;2022-11-20T16:23:02;100853.78;;;-1.94;100.00
11856;BME280;5987;53.140;8.904;2022-11-20T16:26:10;100858.06;;;-1.94;100.00
11856;BME280;5987;53.140;8.904;2022-11-20T16:29:14;100856.22;;;-2.03;100.00